createdAt,value
2022-08-20T00:01:50.683Z,0.80
2022-08-20T00:04:18.046Z,0.73
2022-08-20T00:06:46.209Z,0.80
2022-08-20T00:09:13.583Z,1.33
2022-08-20T00:11:41.030Z,0.87
2022-08-20T00:14:08.525Z,0.80
2022-08-20T00:16:38.332Z,0.93
2022-08-20T00:19:08.738Z,0.80
2022-08-20T00:21:36.951Z,1.00
2022-08-20T00:24:05.573Z,1.10
2022-08-20T00:26:33.326Z,1.27
2022-08-20T00:29:00.800Z,0.90
2022-08-20T00:31:28.786Z,0.90
2022-08-20T00:33:56.184Z,0.90
2022-08-20T00:36:32.191Z,0.93
2022-08-20T00:39:01.588Z,1.00
2022-08-20T00:41:29.835Z,1.27
2022-08-20T00:44:11.596Z,1.33
2022-08-20T00:46:41.872Z,2.10
2022-08-20T00:49:14.644Z,0.93
2022-08-20T00:51:48.893Z,1.23
2022-08-20T00:54:53.766Z,1.17
2022-08-20T00:57:59.064Z,1.20
2022-08-20T01:00:39.630Z,1.30
2022-08-20T01:03:10.131Z,1.30
2022-08-20T01:05:44.995Z,1.30
2022-08-20T01:08:12.904Z,1.43
2022-08-20T01:10:48.539Z,1.40
2022-08-20T01:13:21.523Z,2.13
2022-08-20T01:15:54.800Z,1.43
2022-08-20T01:18:26.498Z,1.60
2022-08-20T01:21:01.103Z,1.40
2022-08-20T01:23:53.589Z,1.10
2022-08-20T01:26:38.053Z,1.43
2022-08-20T01:29:14.323Z,1.37
2022-08-20T01:31:42.727Z,1.10
2022-08-20T01:34:13.947Z,0.97
2022-08-20T01:36:48.891Z,1.17
2022-08-20T01:39:20.981Z,1.30
2022-08-20T01:42:15.734Z,2.40
2022-08-20T01:44:45.385Z,1.00
2022-08-20T01:47:24.477Z,1.13
2022-08-20T01:49:57.208Z,1.13
2022-08-20T01:52:43.550Z,1.03
2022-08-20T01:55:11.657Z,1.37
2022-08-20T01:57:40.005Z,1.43
2022-08-20T02:00:19.769Z,1.47
2022-08-20T02:02:49.719Z,1.10
2022-08-20T02:05:18.337Z,1.27
2022-08-20T02:07:45.654Z,1.40
2022-08-20T02:10:16.269Z,1.27
2022-08-20T02:12:43.963Z,1.43
2022-08-20T02:15:13.218Z,1.50
2022-08-20T02:17:42.222Z,1.47
2022-08-20T02:20:16.191Z,1.50
2022-08-20T02:22:50.923Z,1.70
2022-08-20T02:25:20.304Z,1.53
2022-08-20T02:27:53.200Z,1.33
2022-08-20T02:30:29.654Z,1.40
2022-08-20T02:32:58.615Z,1.47
2022-08-20T02:35:26.816Z,1.53
2022-08-20T02:37:55.170Z,2.77
2022-08-20T02:40:27.241Z,2.13
2022-08-20T02:42:59.189Z,1.40
2022-08-20T02:45:27.548Z,1.47
2022-08-20T02:47:57.246Z,1.50
2022-08-20T02:50:26.465Z,2.00
2022-08-20T02:52:54.274Z,1.60
2022-08-20T02:55:27.037Z,2.90
2022-08-20T02:57:58.928Z,1.40
2022-08-20T03:00:28.222Z,1.70
2022-08-20T03:02:59.718Z,1.50
2022-08-20T03:05:27.636Z,1.50
2022-08-20T03:07:57.052Z,1.80
2022-08-20T03:10:31.336Z,1.37
2022-08-20T03:13:01.523Z,1.83
2022-08-20T03:15:31.325Z,1.50
2022-08-20T03:17:59.297Z,1.70
2022-08-20T03:20:27.249Z,1.63
2022-08-20T03:22:55.752Z,1.70
2022-08-20T03:25:24.598Z,1.60
2022-08-20T03:27:54.963Z,1.80
2022-08-20T03:30:25.544Z,1.70
2022-08-20T03:32:53.801Z,1.60
2022-08-20T03:35:23.919Z,1.53
2022-08-20T03:37:52.085Z,1.53
2022-08-20T03:40:27.192Z,1.60
2022-08-20T03:42:54.829Z,1.47
2022-08-20T03:45:23.258Z,1.63
2022-08-20T03:47:52.312Z,1.53
2022-08-20T03:50:23.732Z,1.77
2022-08-20T03:52:52.561Z,1.60
2022-08-20T03:55:21.049Z,2.53
2022-08-20T03:57:55.254Z,2.33
2022-08-20T04:00:27.239Z,1.57
2022-08-20T04:02:57.089Z,1.63
2022-08-20T04:05:30.817Z,1.60
2022-08-20T04:08:03.285Z,1.67
2022-08-20T04:10:32.007Z,1.53
2022-08-20T04:12:59.398Z,3.27
2022-08-20T04:15:27.198Z,1.80
2022-08-20T04:17:55.292Z,1.93
2022-08-20T04:20:26.346Z,1.60
2022-08-20T04:22:58.460Z,1.60
2022-08-20T04:25:36.099Z,2.17
2022-08-20T04:28:06.712Z,2.33
2022-08-20T04:30:34.417Z,1.97
2022-08-20T04:33:02.596Z,3.67
2022-08-20T04:35:30.944Z,1.63
2022-08-20T04:38:00.256Z,2.10
2022-08-20T04:40:47.475Z,1.80
2022-08-20T04:43:14.929Z,1.63
2022-08-20T04:45:42.448Z,1.67
2022-08-20T04:48:14.688Z,1.70
2022-08-20T04:50:45.258Z,1.70
2022-08-20T04:53:14.850Z,1.57
2022-08-20T04:55:43.503Z,1.97
2022-08-20T04:58:14.015Z,1.40
2022-08-20T05:00:41.643Z,2.00
2022-08-20T05:03:09.252Z,1.67
2022-08-20T05:05:36.934Z,1.63
2022-08-20T05:08:04.870Z,1.67
2022-08-20T05:10:32.714Z,2.53
2022-08-20T05:13:00.871Z,1.83
2022-08-20T05:15:28.271Z,1.87
2022-08-20T05:18:07.961Z,1.67
2022-08-20T05:20:41.884Z,1.70
2022-08-20T05:23:12.435Z,1.53
2022-08-20T05:25:43.086Z,1.73
2022-08-20T05:28:19.454Z,2.00
2022-08-20T05:30:49.281Z,1.50
2022-08-20T05:33:19.310Z,1.70
2022-08-20T05:35:48.967Z,1.87
2022-08-20T05:38:18.958Z,1.43
2022-08-20T05:40:47.278Z,1.50
2022-08-20T05:43:15.326Z,1.70
2022-08-20T05:45:44.447Z,1.37
2022-08-20T05:48:17.834Z,1.90
2022-08-20T05:50:49.473Z,1.47
2022-08-20T05:53:18.665Z,1.50
2022-08-20T05:55:46.479Z,1.37
2022-08-20T05:58:21.541Z,1.43
2022-08-20T06:00:50.377Z,1.57
2022-08-20T06:03:36.752Z,1.37
2022-08-20T06:06:05.124Z,1.33
2022-08-20T06:08:45.448Z,1.53
2022-08-20T06:11:12.749Z,2.10
2022-08-20T06:13:40.538Z,1.50
2022-08-20T06:16:08.254Z,1.47
2022-08-20T06:18:35.862Z,1.47
2022-08-20T06:21:03.178Z,1.80
2022-08-20T06:23:56.627Z,1.47
2022-08-20T06:26:29.625Z,1.67
2022-08-20T06:29:07.062Z,1.63
2022-08-20T06:31:35.339Z,1.97
2022-08-20T06:34:02.643Z,1.80
2022-08-20T06:36:30.058Z,1.50
2022-08-20T06:38:58.651Z,1.50
2022-08-20T06:41:36.189Z,1.40
2022-08-20T06:44:07.794Z,2.13
2022-08-20T06:46:36.599Z,2.03
2022-08-20T06:49:05.731Z,1.50
2022-08-20T06:51:34.428Z,1.83
2022-08-20T06:54:01.965Z,1.40
2022-08-20T06:56:29.516Z,2.23
2022-08-20T06:58:56.921Z,1.37
2022-08-20T07:01:24.632Z,1.40
2022-08-20T07:03:54.402Z,1.60
2022-08-20T07:06:26.050Z,1.63
2022-08-20T07:08:54.925Z,1.37
2022-08-20T07:11:27.728Z,1.87
2022-08-20T07:13:58.598Z,2.70
2022-08-20T07:16:29.276Z,1.30
2022-08-20T07:18:56.767Z,1.00
2022-08-20T07:21:26.023Z,1.00
2022-08-20T07:23:53.606Z,2.03
2022-08-20T07:26:20.944Z,0.77
2022-08-20T07:28:48.863Z,1.67
2022-08-20T07:31:35.703Z,0.90
2022-08-20T07:34:03.905Z,1.00
2022-08-20T07:36:32.696Z,1.50
2022-08-20T07:39:05.976Z,1.03
2022-08-20T07:41:34.294Z,0.90
2022-08-20T07:44:01.914Z,0.80
2022-08-20T07:46:31.306Z,0.97
2022-08-20T07:48:59.473Z,1.20
2022-08-20T07:51:27.239Z,1.27
2022-08-20T07:53:54.909Z,0.70
2022-08-20T07:56:24.655Z,0.97
2022-08-20T07:58:55.835Z,1.00
2022-08-20T08:01:26.660Z,0.80
2022-08-20T08:03:54.594Z,1.37
2022-08-20T08:06:28.585Z,0.70
2022-08-20T08:09:13.585Z,0.60
2022-08-20T08:11:47.800Z,0.80
2022-08-20T08:14:19.899Z,0.60
2022-08-20T08:16:47.675Z,0.60
2022-08-20T08:19:18.038Z,1.40
2022-08-20T08:21:45.806Z,0.67
2022-08-20T08:24:21.063Z,1.13
2022-08-20T08:26:50.479Z,0.67
2022-08-20T08:29:17.864Z,0.50
2022-08-20T08:31:45.717Z,0.87
2022-08-20T08:34:13.388Z,0.63
2022-08-20T08:36:41.134Z,1.03
2022-08-20T08:39:08.442Z,0.97
2022-08-20T08:41:40.952Z,0.80
2022-08-20T08:44:22.248Z,1.63
2022-08-20T08:47:01.439Z,0.73
2022-08-20T08:49:37.957Z,0.90
2022-08-20T08:52:09.126Z,1.00
2022-08-20T08:54:42.428Z,0.90
2022-08-20T08:57:10.962Z,0.90
2022-08-20T08:59:52.125Z,0.80
2022-08-20T09:02:28.585Z,0.50
2022-08-20T09:04:58.493Z,0.60
2022-08-20T09:07:31.710Z,0.50
2022-08-20T09:10:00.521Z,0.70
2022-08-20T09:12:28.203Z,0.60
2022-08-20T09:14:55.692Z,0.60
2022-08-20T09:17:24.194Z,0.87
2022-08-20T09:19:52.678Z,0.67
2022-08-20T09:22:23.557Z,0.40
2022-08-20T09:24:51.029Z,0.60
2022-08-20T09:27:19.202Z,0.40
2022-08-20T09:29:49.240Z,0.67
2022-08-20T09:32:21.003Z,0.57
2022-08-20T09:34:56.184Z,0.60
2022-08-20T09:37:26.465Z,0.70
2022-08-20T09:39:54.399Z,0.60
2022-08-20T09:42:29.258Z,1.03
2022-08-20T09:44:56.672Z,0.40
2022-08-20T09:47:25.330Z,0.60
2022-08-20T09:49:53.637Z,0.67
2022-08-20T09:52:31.241Z,0.50
2022-08-20T09:55:02.234Z,0.97
2022-08-20T09:57:31.120Z,0.50
2022-08-20T10:00:07.733Z,0.57
2022-08-20T10:02:40.207Z,0.70
2022-08-20T10:05:09.453Z,0.60
2022-08-20T10:07:40.950Z,1.93
2022-08-20T10:10:13.657Z,0.90
2022-08-20T10:12:42.226Z,0.80
2022-08-20T10:15:10.673Z,0.77
2022-08-20T10:17:43.541Z,0.63
2022-08-20T10:20:13.371Z,0.60
2022-08-20T10:22:41.109Z,0.60
2022-08-20T10:25:09.185Z,0.70
2022-08-20T10:27:36.839Z,1.03
2022-08-20T10:30:06.819Z,0.77
2022-08-20T10:32:34.758Z,1.23
2022-08-20T10:35:02.986Z,0.73
2022-08-20T10:37:31.813Z,0.50
2022-08-20T10:39:59.526Z,0.50
2022-08-20T10:42:27.088Z,0.70
2022-08-20T10:44:54.690Z,0.93
2022-08-20T10:47:33.143Z,0.93
2022-08-20T10:50:03.340Z,0.63
2022-08-20T10:52:30.923Z,0.53
2022-08-20T10:54:58.604Z,0.90
2022-08-20T10:57:29.488Z,1.00
2022-08-20T10:59:59.455Z,1.03
2022-08-20T11:02:28.669Z,0.70
2022-08-20T11:04:57.266Z,0.70
2022-08-20T11:07:54.777Z,1.00
2022-08-20T11:10:16.675Z,1.47
2022-08-20T11:12:46.413Z,1.37
2022-08-20T11:15:15.596Z,1.07
2022-08-20T11:17:44.920Z,0.80
2022-08-20T11:20:14.948Z,0.80
2022-08-20T11:22:42.552Z,0.60
2022-08-20T11:25:10.900Z,1.03
2022-08-20T11:27:42.319Z,1.10
2022-08-20T11:30:12.825Z,1.20
2022-08-20T11:32:43.522Z,1.67
2022-08-20T11:35:38.852Z,1.57
2022-08-20T11:38:03.389Z,0.77
2022-08-20T11:40:31.948Z,1.23
2022-08-20T11:43:16.734Z,3.40
2022-08-20T11:45:47.669Z,1.33
2022-08-20T11:48:15.851Z,0.77
2022-08-20T11:50:43.549Z,3.77
2022-08-20T11:53:11.364Z,0.67
2022-08-20T11:55:39.675Z,5.43
2022-08-20T11:58:11.214Z,0.60
2022-08-20T12:00:39.061Z,1.23
2022-08-20T12:03:08.987Z,2.40
2022-08-20T12:05:40.094Z,0.80
2022-08-20T12:08:08.913Z,1.63
2022-08-20T12:10:38.335Z,0.70
2022-08-20T12:13:07.545Z,2.20
2022-08-20T12:15:37.280Z,1.30
2022-08-20T12:18:09.236Z,1.87
2022-08-20T12:20:37.696Z,0.90
2022-08-20T12:23:05.697Z,1.00
2022-08-20T12:25:33.588Z,1.10
2022-08-20T12:28:01.033Z,1.27
2022-08-20T12:30:28.535Z,0.90
2022-08-20T12:32:56.390Z,1.20
2022-08-20T12:35:24.634Z,2.67
2022-08-20T12:37:52.253Z,0.87
2022-08-20T12:40:30.729Z,0.80
2022-08-20T12:43:01.813Z,0.80
2022-08-20T12:45:31.711Z,0.77
2022-08-20T12:48:10.282Z,0.93
2022-08-20T12:50:39.652Z,1.33
2022-08-20T12:53:07.279Z,0.93
2022-08-20T12:55:35.913Z,1.23
2022-08-20T12:58:04.795Z,1.30
2022-08-20T13:00:38.392Z,0.83
2022-08-20T13:03:07.482Z,1.03
2022-08-20T13:05:36.224Z,0.80
2022-08-20T13:08:08.906Z,1.60
2022-08-20T13:10:46.164Z,1.67
2022-08-20T13:13:17.600Z,0.90
2022-08-20T13:15:49.876Z,0.97
2022-08-20T13:18:19.609Z,1.13
2022-08-20T13:20:49.165Z,0.67
2022-08-20T13:23:17.714Z,1.03
2022-08-20T13:25:45.231Z,0.73
2022-08-20T13:28:12.931Z,2.50
2022-08-20T13:30:41.717Z,0.80
2022-08-20T13:33:09.588Z,0.87
2022-08-20T13:35:37.129Z,1.10
2022-08-20T13:38:04.923Z,0.87
2022-08-20T13:40:32.537Z,0.93
2022-08-20T13:43:05.920Z,0.70
2022-08-20T13:45:37.944Z,0.93
2022-08-20T13:48:09.927Z,1.23
2022-08-20T13:50:43.040Z,1.00
2022-08-20T13:53:10.682Z,1.27
2022-08-20T13:55:39.164Z,1.23
2022-08-20T13:58:08.265Z,0.97
2022-08-20T14:00:36.843Z,0.70
2022-08-20T14:03:06.532Z,0.80
2022-08-20T14:05:35.316Z,1.03
2022-08-20T14:08:10.478Z,1.30
2022-08-20T14:10:38.505Z,0.93
2022-08-20T14:13:07.216Z,1.90
2022-08-20T14:15:36.753Z,1.07
2022-08-20T14:18:05.225Z,2.50
2022-08-20T14:20:34.613Z,3.13
2022-08-20T14:23:07.056Z,1.23
2022-08-20T14:25:36.580Z,2.87
2022-08-20T14:28:18.262Z,1.27
2022-08-20T14:30:47.846Z,2.17
2022-08-20T14:33:22.761Z,0.80
2022-08-20T14:35:50.564Z,0.80
2022-08-20T14:38:18.104Z,1.23
2022-08-20T14:40:47.737Z,1.47
2022-08-20T14:43:15.306Z,1.37
2022-08-20T14:45:42.903Z,2.90
2022-08-20T14:48:10.983Z,1.40
2022-08-20T14:50:39.466Z,1.93
2022-08-20T14:53:08.311Z,3.33
2022-08-20T14:55:38.064Z,1.83
2022-08-20T14:58:10.894Z,1.30
2022-08-20T15:00:38.746Z,1.57
2022-08-20T15:03:06.426Z,1.87
2022-08-20T15:05:35.204Z,1.77
2022-08-20T15:08:08.391Z,1.50
2022-08-20T15:10:39.479Z,1.60
2022-08-20T15:13:07.761Z,1.87
2022-08-20T15:15:37.179Z,2.13
2022-08-20T15:18:05.085Z,1.40
2022-08-20T15:20:35.193Z,1.47
2022-08-20T15:23:04.488Z,1.40
2022-08-20T15:25:37.056Z,1.30
2022-08-20T15:28:06.981Z,2.00
2022-08-20T15:30:34.693Z,1.37
2022-08-20T15:33:02.716Z,1.60
2022-08-20T15:35:30.664Z,1.70
2022-08-20T15:37:59.759Z,1.63
2022-08-20T15:40:29.572Z,1.63
2022-08-20T15:42:58.623Z,1.53
2022-08-20T15:45:27.153Z,1.23
2022-08-20T15:48:32.615Z,1.43
2022-08-20T15:51:19.701Z,1.37
2022-08-20T15:53:52.960Z,1.80
2022-08-20T15:56:37.939Z,2.73
2022-08-20T15:59:14.690Z,2.13
2022-08-20T16:02:17.251Z,1.67
2022-08-20T16:04:59.452Z,1.33
2022-08-20T16:07:58.995Z,1.47
2022-08-20T16:10:55.064Z,2.40
2022-08-20T16:13:32.161Z,1.40
2022-08-20T16:16:02.641Z,1.30
2022-08-20T16:18:36.908Z,1.50
2022-08-20T16:21:10.280Z,1.37
2022-08-20T16:23:42.577Z,2.20
2022-08-20T16:26:23.850Z,1.67
2022-08-20T16:29:11.794Z,1.60
2022-08-20T16:31:51.787Z,1.50
2022-08-20T16:34:33.563Z,1.37
2022-08-20T16:37:25.639Z,2.20
2022-08-20T16:40:17.826Z,1.40
2022-08-20T16:42:48.688Z,1.57
2022-08-20T16:45:25.796Z,2.03
2022-08-20T16:47:57.675Z,1.63
2022-08-20T16:50:31.940Z,1.63
2022-08-20T16:52:59.343Z,2.13
2022-08-20T16:55:26.815Z,2.53
2022-08-20T16:57:55.326Z,1.43
2022-08-20T17:00:30.021Z,2.10
2022-08-20T17:03:00.768Z,1.93
2022-08-20T17:05:43.165Z,1.30
2022-08-20T17:08:20.621Z,2.10
2022-08-20T17:11:14.564Z,1.70
2022-08-20T17:13:47.237Z,1.30
2022-08-20T17:16:15.346Z,2.30
2022-08-20T17:18:54.004Z,1.97
2022-08-20T17:21:28.987Z,2.13
2022-08-20T17:24:03.272Z,2.73
2022-08-20T17:26:30.573Z,2.23
2022-08-20T17:29:01.432Z,3.93
2022-08-20T17:31:38.739Z,2.57
2022-08-20T17:34:21.149Z,1.93
2022-08-20T17:36:58.035Z,1.43
2022-08-20T17:39:28.906Z,1.67
2022-08-20T17:42:09.323Z,1.30
2022-08-20T17:44:49.342Z,3.93
2022-08-20T17:47:18.658Z,2.83
2022-08-20T17:49:57.292Z,1.90
2022-08-20T17:52:44.238Z,2.37
2022-08-20T17:55:13.404Z,1.83
2022-08-20T17:57:44.265Z,2.63
2022-08-20T18:00:16.610Z,2.97
2022-08-20T18:02:45.332Z,1.60
2022-08-20T18:05:18.728Z,2.43
2022-08-20T18:08:19.582Z,1.73
2022-08-20T18:11:14.471Z,1.53
2022-08-20T18:13:55.922Z,1.73
2022-08-20T18:16:30.511Z,3.13
2022-08-20T18:19:11.396Z,2.77
2022-08-20T18:22:00.465Z,3.70
2022-08-20T18:24:39.015Z,1.97
2022-08-20T18:27:21.070Z,2.30
2022-08-20T18:29:57.641Z,2.13
2022-08-20T18:32:31.345Z,3.20
2022-08-20T18:35:25.213Z,2.40
2022-08-20T18:37:53.039Z,1.33
2022-08-20T18:40:33.290Z,1.60
2022-08-20T18:43:13.073Z,1.93
2022-08-20T18:45:42.524Z,2.40
2022-08-20T18:48:22.751Z,2.00
2022-08-20T18:50:55.376Z,1.77
2022-08-20T18:53:35.478Z,2.93
2022-08-20T18:56:05.686Z,1.30
2022-08-20T18:58:49.019Z,3.90
2022-08-20T19:01:16.598Z,1.93
2022-08-20T19:03:51.434Z,2.17
2022-08-20T19:06:21.662Z,1.80
2022-08-20T19:09:15.077Z,2.27
2022-08-20T19:12:00.954Z,3.07
2022-08-20T19:14:46.510Z,1.40
2022-08-20T19:17:32.447Z,2.50
2022-08-20T19:20:30.013Z,2.17
2022-08-20T19:23:05.131Z,2.00
2022-08-20T19:25:36.511Z,1.53
2022-08-20T19:28:23.884Z,1.97
2022-08-20T19:30:52.624Z,1.93
2022-08-20T19:33:31.795Z,1.73
2022-08-20T19:36:28.404Z,4.03
2022-08-20T19:38:59.743Z,2.93
2022-08-20T19:41:31.689Z,1.30
2022-08-20T19:44:01.131Z,2.33
2022-08-20T19:46:47.724Z,1.33
2022-08-20T19:49:29.337Z,1.87
2022-08-20T19:52:13.624Z,1.60
2022-08-20T19:55:00.011Z,3.83
2022-08-20T19:57:30.379Z,2.40
2022-08-20T20:00:02.036Z,1.73
2022-08-20T20:02:34.000Z,3.10
2022-08-20T20:05:07.112Z,2.13
2022-08-20T20:07:42.258Z,3.00
2022-08-20T20:10:20.106Z,3.10
2022-08-20T20:12:48.211Z,4.17
2022-08-20T20:15:16.551Z,2.47
2022-08-20T20:17:46.919Z,2.57
2022-08-20T20:20:29.433Z,3.07
2022-08-20T20:23:06.812Z,2.97
2022-08-20T20:25:35.499Z,4.30
2022-08-20T20:28:08.798Z,4.63
2022-08-20T20:30:38.984Z,3.80
2022-08-20T20:33:22.580Z,4.80
2022-08-20T20:36:04.283Z,4.37
2022-08-20T20:38:33.929Z,4.17
2022-08-20T20:41:05.144Z,2.60
2022-08-20T20:43:35.428Z,3.60
2022-08-20T20:46:20.759Z,6.30
2022-08-20T20:48:51.748Z,3.00
2022-08-20T20:51:31.482Z,4.60
2022-08-20T20:54:07.362Z,4.40
2022-08-20T20:56:41.423Z,3.47
2022-08-20T20:59:11.152Z,6.13
2022-08-20T21:01:48.451Z,5.77
2022-08-20T21:04:30.301Z,4.23
2022-08-20T21:07:08.070Z,4.70
2022-08-20T21:09:40.727Z,5.00
2022-08-20T21:12:10.246Z,4.67
2022-08-20T21:14:37.748Z,4.13
2022-08-20T21:17:08.775Z,6.00
2022-08-20T21:19:44.970Z,7.43
2022-08-20T21:22:12.989Z,5.40
2022-08-20T21:24:40.571Z,4.07
2022-08-20T21:27:08.937Z,5.27
2022-08-20T21:29:40.016Z,5.83
2022-08-20T21:32:08.213Z,5.17
2022-08-20T21:34:41.354Z,6.23
2022-08-20T21:37:08.904Z,4.90
2022-08-20T21:39:38.655Z,6.10
2022-08-20T21:42:28.084Z,5.30
2022-08-20T21:44:56.661Z,6.07
2022-08-20T21:47:25.066Z,5.77
2022-08-20T21:49:55.718Z,3.23
2022-08-20T21:52:23.478Z,4.23
2022-08-20T21:54:51.195Z,5.53
2022-08-20T21:57:21.739Z,6.13
2022-08-20T21:59:50.188Z,7.47
2022-08-20T22:02:19.289Z,5.40
2022-08-20T22:04:46.799Z,4.73
2022-08-20T22:07:15.601Z,3.93
2022-08-20T22:09:43.286Z,6.37
2022-08-20T22:12:19.339Z,5.50
2022-08-20T22:14:47.329Z,6.03
2022-08-20T22:17:15.978Z,4.93
2022-08-20T22:19:43.583Z,3.77
2022-08-20T22:22:13.353Z,4.00
2022-08-20T22:24:40.812Z,7.67
2022-08-20T22:27:08.453Z,7.37
2022-08-20T22:29:36.372Z,6.60
2022-08-20T22:32:05.021Z,6.87
2022-08-20T22:34:35.992Z,4.43
2022-08-20T22:37:04.651Z,5.17
2022-08-20T22:39:32.264Z,3.63
2022-08-20T22:42:00.062Z,6.47
2022-08-20T22:44:27.812Z,6.00
2022-08-20T22:46:59.893Z,4.47
2022-08-20T22:49:31.267Z,5.33
2022-08-20T22:51:59.387Z,4.30
2022-08-20T22:54:27.321Z,4.23
2022-08-20T22:56:55.368Z,4.63
2022-08-20T22:59:24.163Z,5.13
2022-08-20T23:01:53.245Z,5.63
2022-08-20T23:04:33.195Z,4.33
2022-08-20T23:07:02.818Z,3.70
2022-08-20T23:09:30.930Z,5.80
2022-08-20T23:11:58.955Z,5.43
2022-08-20T23:14:26.945Z,4.70
2022-08-20T23:17:13.436Z,6.50
2022-08-20T23:19:42.914Z,3.73
2022-08-20T23:22:12.563Z,6.63
2022-08-20T23:24:40.771Z,3.37
2022-08-20T23:27:10.548Z,5.03
2022-08-20T23:29:38.262Z,4.60
2022-08-20T23:32:48.935Z,4.40
2022-08-20T23:35:17.249Z,5.57
2022-08-20T23:37:51.696Z,4.07
2022-08-20T23:40:28.293Z,4.73
2022-08-20T23:42:57.564Z,5.50
2022-08-20T23:45:25.581Z,4.97
2022-08-20T23:47:53.331Z,3.70
2022-08-20T23:50:24.360Z,5.10
2022-08-20T23:52:52.723Z,5.77
2022-08-20T23:55:22.914Z,6.37
2022-08-20T23:57:51.044Z,4.70
